sensor_id;sensor_type;location;lat;lon;timestamp;P1;durP1;ratioP1;P2;durP2;ratioP2
11829;SDS011;5972;42.134;24.718;2023-03-23T00:00:59;17.77;;;14.77;;
11829;SDS011;5972;42.134;24.718;2023-03-23T00:03:26;18.00;;;12.80;;
11829;SDS011;5972;42.134;24.718;2023-03-23T00:05:54;19.83;;;13.82;;
11829;SDS011;5972;42.134;24.718;2023-03-23T00:08:24;17.25;;;13.68;;
11829;SDS011;5972;42.134;24.718;2023-03-23T00:10:52;17.90;;;13.82;;
11829;SDS011;5972;42.134;24.718;2023-03-23T00:13:23;19.70;;;14.65;;
11829;SDS011;5972;42.134;24.718;2023-03-23T00:15:50;20.10;;;14.27;;
11829;SDS011;5972;42.134;24.718;2023-03-23T00:18:18;17.40;;;13.10;;
11829;SDS011;5972;42.134;24.718;2023-03-23T00:20:48;19.05;;;14.65;;
11829;SDS011;5972;42.134;24.718;2023-03-23T00:23:16;20.65;;;14.20;;
11829;SDS011;5972;42.134;24.718;2023-03-23T00:25:47;16.25;;;13.40;;
11829;SDS011;5972;42.134;24.718;2023-03-23T00:28:15;19.63;;;14.18;;
11829;SDS011;5972;42.134;24.718;2023-03-23T00:30:44;16.55;;;12.90;;
11829;SDS011;5972;42.134;24.718;2023-03-23T00:33:11;17.80;;;12.90;;
11829;SDS011;5972;42.134;24.718;2023-03-23T00:35:39;19.95;;;12.75;;
11829;SDS011;5972;42.134;24.718;2023-03-23T00:38:06;19.50;;;13.27;;
11829;SDS011;5972;42.134;24.718;2023-03-23T00:40:34;16.75;;;12.98;;
11829;SDS011;5972;42.134;24.718;2023-03-23T00:43:02;17.45;;;12.80;;
11829;SDS011;5972;42.134;24.718;2023-03-23T00:45:29;18.00;;;13.23;;
11829;SDS011;5972;42.134;24.718;2023-03-23T00:48:14;17.45;;;13.10;;
11829;SDS011;5972;42.134;24.718;2023-03-23T00:50:41;17.52;;;13.70;;
11829;SDS011;5972;42.134;24.718;2023-03-23T00:53:08;18.83;;;12.68;;
11829;SDS011;5972;42.134;24.718;2023-03-23T00:55:34;17.48;;;12.70;;
11829;SDS011;5972;42.134;24.718;2023-03-23T00:58:01;17.48;;;13.55;;
11829;SDS011;5972;42.134;24.718;2023-03-23T01:00:28;17.77;;;13.40;;
11829;SDS011;5972;42.134;24.718;2023-03-23T01:02:55;22.00;;;13.15;;
11829;SDS011;5972;42.134;24.718;2023-03-23T01:05:23;18.40;;;14.05;;
11829;SDS011;5972;42.134;24.718;2023-03-23T01:07:57;20.13;;;13.85;;
11829;SDS011;5972;42.134;24.718;2023-03-23T01:10:24;16.88;;;13.20;;
11829;SDS011;5972;42.134;24.718;2023-03-23T01:12:52;20.05;;;14.10;;
11829;SDS011;5972;42.134;24.718;2023-03-23T01:15:20;16.95;;;14.32;;
11829;SDS011;5972;42.134;24.718;2023-03-23T01:17:47;19.30;;;14.80;;
11829;SDS011;5972;42.134;24.718;2023-03-23T01:20:14;18.88;;;14.15;;
11829;SDS011;5972;42.134;24.718;2023-03-23T01:22:43;22.08;;;15.20;;
11829;SDS011;5972;42.134;24.718;2023-03-23T01:25:11;20.42;;;15.00;;
11829;SDS011;5972;42.134;24.718;2023-03-23T01:27:38;19.38;;;14.43;;
11829;SDS011;5972;42.134;24.718;2023-03-23T01:30:07;19.52;;;14.75;;
11829;SDS011;5972;42.134;24.718;2023-03-23T01:32:38;19.92;;;15.48;;
11829;SDS011;5972;42.134;24.718;2023-03-23T01:35:05;19.00;;;15.65;;
11829;SDS011;5972;42.134;24.718;2023-03-23T01:37:32;20.30;;;16.10;;
11829;SDS011;5972;42.134;24.718;2023-03-23T01:40:04;20.40;;;15.52;;
11829;SDS011;5972;42.134;24.718;2023-03-23T01:42:32;20.90;;;16.08;;
11829;SDS011;5972;42.134;24.718;2023-03-23T01:47:53;20.83;;;16.67;;
11829;SDS011;5972;42.134;24.718;2023-03-23T01:50:24;25.65;;;17.30;;
11829;SDS011;5972;42.134;24.718;2023-03-23T01:52:53;20.38;;;16.17;;
11829;SDS011;5972;42.134;24.718;2023-03-23T01:55:23;21.52;;;16.00;;
11829;SDS011;5972;42.134;24.718;2023-03-23T01:57:52;19.58;;;15.55;;
11829;SDS011;5972;42.134;24.718;2023-03-23T02:00:21;22.08;;;16.27;;
11829;SDS011;5972;42.134;24.718;2023-03-23T02:02:49;22.65;;;16.30;;
11829;SDS011;5972;42.134;24.718;2023-03-23T02:05:19;19.27;;;15.52;;
11829;SDS011;5972;42.134;24.718;2023-03-23T02:07:50;20.38;;;15.63;;
11829;SDS011;5972;42.134;24.718;2023-03-23T02:10:19;19.85;;;15.40;;
11829;SDS011;5972;42.134;24.718;2023-03-23T02:12:47;24.40;;;16.35;;
11829;SDS011;5972;42.134;24.718;2023-03-23T02:15:14;22.35;;;16.05;;
11829;SDS011;5972;42.134;24.718;2023-03-23T02:17:43;24.38;;;16.75;;
11829;SDS011;5972;42.134;24.718;2023-03-23T02:20:20;23.98;;;16.42;;
11829;SDS011;5972;42.134;24.718;2023-03-23T02:23:08;21.35;;;16.90;;
11829;SDS011;5972;42.134;24.718;2023-03-23T02:25:53;23.33;;;15.80;;
11829;SDS011;5972;42.134;24.718;2023-03-23T02:28:32;22.85;;;16.65;;
11829;SDS011;5972;42.134;24.718;2023-03-23T02:31:23;20.70;;;16.00;;
11829;SDS011;5972;42.134;24.718;2023-03-23T02:34:15;20.25;;;15.90;;
11829;SDS011;5972;42.134;24.718;2023-03-23T02:36:45;19.95;;;15.32;;
11829;SDS011;5972;42.134;24.718;2023-03-23T02:39:18;21.67;;;15.95;;
11829;SDS011;5972;42.134;24.718;2023-03-23T02:41:49;19.30;;;15.40;;
11829;SDS011;5972;42.134;24.718;2023-03-23T02:44:18;19.30;;;15.35;;
11829;SDS011;5972;42.134;24.718;2023-03-23T02:46:47;19.30;;;14.48;;
11829;SDS011;5972;42.134;24.718;2023-03-23T02:49:16;19.10;;;14.32;;
11829;SDS011;5972;42.134;24.718;2023-03-23T02:51:46;18.00;;;14.40;;
11829;SDS011;5972;42.134;24.718;2023-03-23T02:54:15;18.50;;;14.30;;
11829;SDS011;5972;42.134;24.718;2023-03-23T02:56:45;18.23;;;13.98;;
11829;SDS011;5972;42.134;24.718;2023-03-23T02:59:13;21.13;;;13.73;;
11829;SDS011;5972;42.134;24.718;2023-03-23T03:01:48;19.33;;;15.05;;
11829;SDS011;5972;42.134;24.718;2023-03-23T03:04:21;18.60;;;13.90;;
11829;SDS011;5972;42.134;24.718;2023-03-23T03:06:56;20.40;;;14.48;;
11829;SDS011;5972;42.134;24.718;2023-03-23T03:09:35;18.30;;;14.73;;
11829;SDS011;5972;42.134;24.718;2023-03-23T03:12:11;20.90;;;14.80;;
11829;SDS011;5972;42.134;24.718;2023-03-23T03:14:44;23.42;;;15.25;;
11829;SDS011;5972;42.134;24.718;2023-03-23T03:17:19;18.13;;;14.05;;
11829;SDS011;5972;42.134;24.718;2023-03-23T03:19:52;20.95;;;14.50;;
11829;SDS011;5972;42.134;24.718;2023-03-23T03:22:23;17.83;;;14.68;;
11829;SDS011;5972;42.134;24.718;2023-03-23T03:24:54;22.13;;;14.63;;
11829;SDS011;5972;42.134;24.718;2023-03-23T03:27:23;22.27;;;14.85;;
11829;SDS011;5972;42.134;24.718;2023-03-23T03:29:53;22.58;;;15.27;;
11829;SDS011;5972;42.134;24.718;2023-03-23T03:32:24;23.77;;;14.85;;
11829;SDS011;5972;42.134;24.718;2023-03-23T03:34:59;22.42;;;15.65;;
11829;SDS011;5972;42.134;24.718;2023-03-23T03:37:27;22.17;;;14.98;;
11829;SDS011;5972;42.134;24.718;2023-03-23T03:40:03;22.60;;;13.95;;
11829;SDS011;5972;42.134;24.718;2023-03-23T03:42:36;24.35;;;15.00;;
11829;SDS011;5972;42.134;24.718;2023-03-23T03:45:03;19.33;;;14.55;;
11829;SDS011;5972;42.134;24.718;2023-03-23T03:47:30;20.95;;;15.10;;
11829;SDS011;5972;42.134;24.718;2023-03-23T03:49:57;25.63;;;15.13;;
11829;SDS011;5972;42.134;24.718;2023-03-23T03:52:25;21.75;;;15.55;;
11829;SDS011;5972;42.134;24.718;2023-03-23T03:54:53;23.13;;;16.03;;
11829;SDS011;5972;42.134;24.718;2023-03-23T03:57:20;22.30;;;15.43;;
11829;SDS011;5972;42.134;24.718;2023-03-23T03:59:48;23.33;;;14.37;;
11829;SDS011;5972;42.134;24.718;2023-03-23T04:02:14;20.27;;;14.73;;
11829;SDS011;5972;42.134;24.718;2023-03-23T04:04:45;22.40;;;14.73;;
11829;SDS011;5972;42.134;24.718;2023-03-23T04:07:13;21.27;;;14.53;;
11829;SDS011;5972;42.134;24.718;2023-03-23T04:09:43;18.77;;;14.13;;
11829;SDS011;5972;42.134;24.718;2023-03-23T04:12:11;19.60;;;14.90;;
11829;SDS011;5972;42.134;24.718;2023-03-23T04:14:38;22.30;;;14.53;;
11829;SDS011;5972;42.134;24.718;2023-03-23T04:17:05;21.95;;;15.23;;
11829;SDS011;5972;42.134;24.718;2023-03-23T04:19:32;19.80;;;14.70;;
11829;SDS011;5972;42.134;24.718;2023-03-23T04:21:59;21.53;;;15.07;;
11829;SDS011;5972;42.134;24.718;2023-03-23T04:24:26;19.05;;;14.55;;
11829;SDS011;5972;42.134;24.718;2023-03-23T04:26:57;20.90;;;15.55;;
11829;SDS011;5972;42.134;24.718;2023-03-23T04:29:24;17.92;;;13.43;;
11829;SDS011;5972;42.134;24.718;2023-03-23T04:31:52;19.17;;;13.73;;
11829;SDS011;5972;42.134;24.718;2023-03-23T04:34:20;19.27;;;13.23;;
11829;SDS011;5972;42.134;24.718;2023-03-23T04:36:48;18.95;;;13.35;;
11829;SDS011;5972;42.134;24.718;2023-03-23T04:39:14;16.85;;;13.15;;
11829;SDS011;5972;42.134;24.718;2023-03-23T04:41:41;18.48;;;13.20;;
11829;SDS011;5972;42.134;24.718;2023-03-23T04:44:10;22.48;;;14.55;;
11829;SDS011;5972;42.134;24.718;2023-03-23T04:46:42;18.42;;;13.98;;
11829;SDS011;5972;42.134;24.718;2023-03-23T04:49:15;20.50;;;13.38;;
11829;SDS011;5972;42.134;24.718;2023-03-23T04:51:46;18.95;;;13.27;;
11829;SDS011;5972;42.134;24.718;2023-03-23T04:54:13;18.92;;;13.13;;
11829;SDS011;5972;42.134;24.718;2023-03-23T04:56:40;16.60;;;13.48;;
11829;SDS011;5972;42.134;24.718;2023-03-23T04:59:07;18.17;;;12.95;;
11829;SDS011;5972;42.134;24.718;2023-03-23T05:01:35;17.73;;;12.75;;
11829;SDS011;5972;42.134;24.718;2023-03-23T05:04:03;16.65;;;12.50;;
11829;SDS011;5972;42.134;24.718;2023-03-23T05:06:30;19.58;;;14.07;;
11829;SDS011;5972;42.134;24.718;2023-03-23T05:08:57;18.65;;;12.93;;
11829;SDS011;5972;42.134;24.718;2023-03-23T05:11:24;18.02;;;13.15;;
11829;SDS011;5972;42.134;24.718;2023-03-23T05:13:52;16.50;;;13.02;;
11829;SDS011;5972;42.134;24.718;2023-03-23T05:16:18;16.65;;;12.82;;
11829;SDS011;5972;42.134;24.718;2023-03-23T05:18:46;16.15;;;12.15;;
11829;SDS011;5972;42.134;24.718;2023-03-23T05:21:13;18.85;;;12.40;;
11829;SDS011;5972;42.134;24.718;2023-03-23T05:23:40;14.20;;;12.10;;
11829;SDS011;5972;42.134;24.718;2023-03-23T05:26:07;16.40;;;12.27;;
11829;SDS011;5972;42.134;24.718;2023-03-23T05:28:34;15.25;;;11.07;;
11829;SDS011;5972;42.134;24.718;2023-03-23T05:31:02;16.00;;;12.13;;
11829;SDS011;5972;42.134;24.718;2023-03-23T05:33:29;18.15;;;12.45;;
11829;SDS011;5972;42.134;24.718;2023-03-23T05:35:58;17.52;;;12.05;;
11829;SDS011;5972;42.134;24.718;2023-03-23T05:38:25;20.48;;;13.80;;
11829;SDS011;5972;42.134;24.718;2023-03-23T05:40:53;17.77;;;12.70;;
11829;SDS011;5972;42.134;24.718;2023-03-23T05:43:25;21.75;;;12.80;;
11829;SDS011;5972;42.134;24.718;2023-03-23T05:45:54;18.92;;;12.65;;
11829;SDS011;5972;42.134;24.718;2023-03-23T05:48:21;16.33;;;12.32;;
11829;SDS011;5972;42.134;24.718;2023-03-23T05:50:47;22.85;;;12.38;;
11829;SDS011;5972;42.134;24.718;2023-03-23T05:53:16;18.73;;;13.43;;
11829;SDS011;5972;42.134;24.718;2023-03-23T05:55:42;22.08;;;13.43;;
11829;SDS011;5972;42.134;24.718;2023-03-23T05:58:10;18.67;;;12.43;;
11829;SDS011;5972;42.134;24.718;2023-03-23T06:00:37;15.73;;;12.35;;
11829;SDS011;5972;42.134;24.718;2023-03-23T06:03:04;20.58;;;12.48;;
11829;SDS011;5972;42.134;24.718;2023-03-23T06:05:31;17.90;;;11.65;;
11829;SDS011;5972;42.134;24.718;2023-03-23T06:07:57;18.45;;;13.13;;
11829;SDS011;5972;42.134;24.718;2023-03-23T06:10:26;16.92;;;11.30;;
11829;SDS011;5972;42.134;24.718;2023-03-23T06:12:53;17.63;;;12.85;;
11829;SDS011;5972;42.134;24.718;2023-03-23T06:15:20;14.65;;;11.65;;
11829;SDS011;5972;42.134;24.718;2023-03-23T06:17:47;17.35;;;12.60;;
11829;SDS011;5972;42.134;24.718;2023-03-23T06:20:15;18.75;;;12.90;;
11829;SDS011;5972;42.134;24.718;2023-03-23T06:22:42;16.83;;;12.02;;
11829;SDS011;5972;42.134;24.718;2023-03-23T06:25:09;18.23;;;13.27;;
11829;SDS011;5972;42.134;24.718;2023-03-23T06:27:39;20.20;;;13.57;;
11829;SDS011;5972;42.134;24.718;2023-03-23T06:30:06;18.63;;;13.48;;
11829;SDS011;5972;42.134;24.718;2023-03-23T06:32:34;20.27;;;13.35;;
11829;SDS011;5972;42.134;24.718;2023-03-23T06:35:01;21.55;;;13.10;;
11829;SDS011;5972;42.134;24.718;2023-03-23T06:37:28;20.85;;;12.70;;
11829;SDS011;5972;42.134;24.718;2023-03-23T06:39:55;15.60;;;12.90;;
11829;SDS011;5972;42.134;24.718;2023-03-23T06:42:22;14.95;;;12.57;;
11829;SDS011;5972;42.134;24.718;2023-03-23T06:44:52;16.05;;;13.32;;
11829;SDS011;5972;42.134;24.718;2023-03-23T06:47:21;17.10;;;13.00;;
11829;SDS011;5972;42.134;24.718;2023-03-23T06:49:49;16.30;;;12.30;;
11829;SDS011;5972;42.134;24.718;2023-03-23T06:52:16;16.08;;;12.63;;
11829;SDS011;5972;42.134;24.718;2023-03-23T06:54:45;19.27;;;12.48;;
11829;SDS011;5972;42.134;24.718;2023-03-23T06:57:12;19.55;;;12.45;;
11829;SDS011;5972;42.134;24.718;2023-03-23T06:59:39;19.35;;;13.30;;
11829;SDS011;5972;42.134;24.718;2023-03-23T07:02:09;18.90;;;13.32;;
11829;SDS011;5972;42.134;24.718;2023-03-23T07:04:37;16.95;;;12.70;;
11829;SDS011;5972;42.134;24.718;2023-03-23T07:07:05;17.10;;;12.45;;
11829;SDS011;5972;42.134;24.718;2023-03-23T07:09:33;22.30;;;12.60;;
11829;SDS011;5972;42.134;24.718;2023-03-23T07:12:00;12.98;;;11.45;;
11829;SDS011;5972;42.134;24.718;2023-03-23T07:14:27;14.77;;;11.38;;
11829;SDS011;5972;42.134;24.718;2023-03-23T07:16:53;15.98;;;11.43;;
11829;SDS011;5972;42.134;24.718;2023-03-23T07:19:22;15.20;;;12.05;;
11829;SDS011;5972;42.134;24.718;2023-03-23T07:21:49;14.95;;;12.15;;
11829;SDS011;5972;42.134;24.718;2023-03-23T07:24:16;13.90;;;11.27;;
11829;SDS011;5972;42.134;24.718;2023-03-23T07:26:43;17.00;;;12.05;;
11829;SDS011;5972;42.134;24.718;2023-03-23T07:29:11;18.77;;;11.93;;
11829;SDS011;5972;42.134;24.718;2023-03-23T07:31:38;18.15;;;11.63;;
11829;SDS011;5972;42.134;24.718;2023-03-23T07:34:04;16.45;;;12.48;;
11829;SDS011;5972;42.134;24.718;2023-03-23T07:36:33;16.80;;;13.82;;
11829;SDS011;5972;42.134;24.718;2023-03-23T07:39:02;19.17;;;12.65;;
11829;SDS011;5972;42.134;24.718;2023-03-23T07:41:30;14.23;;;11.88;;
11829;SDS011;5972;42.134;24.718;2023-03-23T07:43:57;16.63;;;12.60;;
11829;SDS011;5972;42.134;24.718;2023-03-23T07:46:24;20.70;;;12.48;;
11829;SDS011;5972;42.134;24.718;2023-03-23T07:48:51;18.40;;;12.45;;
11829;SDS011;5972;42.134;24.718;2023-03-23T07:51:18;15.05;;;11.32;;
11829;SDS011;5972;42.134;24.718;2023-03-23T07:53:46;13.52;;;11.27;;
11829;SDS011;5972;42.134;24.718;2023-03-23T07:56:13;12.02;;;10.73;;
11829;SDS011;5972;42.134;24.718;2023-03-23T07:58:43;11.55;;;10.13;;
11829;SDS011;5972;42.134;24.718;2023-03-23T08:01:10;14.23;;;9.73;;
11829;SDS011;5972;42.134;24.718;2023-03-23T08:03:37;10.45;;;9.45;;
11829;SDS011;5972;42.134;24.718;2023-03-23T08:06:05;11.13;;;9.73;;
11829;SDS011;5972;42.134;24.718;2023-03-23T08:08:33;8.93;;;8.00;;
11829;SDS011;5972;42.134;24.718;2023-03-23T08:11:02;9.57;;;8.68;;
11829;SDS011;5972;42.134;24.718;2023-03-23T08:13:29;10.32;;;8.35;;
11829;SDS011;5972;42.134;24.718;2023-03-23T08:15:56;10.50;;;8.50;;
11829;SDS011;5972;42.134;24.718;2023-03-23T08:18:23;13.13;;;9.20;;
11829;SDS011;5972;42.134;24.718;2023-03-23T08:20:50;9.65;;;8.48;;
11829;SDS011;5972;42.134;24.718;2023-03-23T08:23:18;9.73;;;8.82;;
11829;SDS011;5972;42.134;24.718;2023-03-23T08:25:46;11.30;;;8.90;;
11829;SDS011;5972;42.134;24.718;2023-03-23T08:28:15;11.50;;;8.13;;
11829;SDS011;5972;42.134;24.718;2023-03-23T08:30:42;8.95;;;8.00;;
11829;SDS011;5972;42.134;24.718;2023-03-23T08:33:09;9.80;;;8.80;;
11829;SDS011;5972;42.134;24.718;2023-03-23T08:35:37;11.75;;;8.40;;
11829;SDS011;5972;42.134;24.718;2023-03-23T08:38:04;9.45;;;8.55;;
11829;SDS011;5972;42.134;24.718;2023-03-23T08:40:31;9.10;;;8.15;;
11829;SDS011;5972;42.134;24.718;2023-03-23T08:43:01;8.45;;;7.63;;
11829;SDS011;5972;42.134;24.718;2023-03-23T08:45:29;8.40;;;7.60;;
11829;SDS011;5972;42.134;24.718;2023-03-23T08:47:56;11.35;;;7.65;;
11829;SDS011;5972;42.134;24.718;2023-03-23T08:50:25;11.27;;;7.78;;
11829;SDS011;5972;42.134;24.718;2023-03-23T08:52:53;8.40;;;7.63;;
11829;SDS011;5972;42.134;24.718;2023-03-23T08:55:21;10.05;;;7.72;;
11829;SDS011;5972;42.134;24.718;2023-03-23T08:57:49;10.90;;;8.27;;
11829;SDS011;5972;42.134;24.718;2023-03-23T09:00:17;8.60;;;7.75;;
11829;SDS011;5972;42.134;24.718;2023-03-23T09:02:48;7.68;;;6.97;;
11829;SDS011;5972;42.134;24.718;2023-03-23T09:05:17;8.20;;;7.40;;
11829;SDS011;5972;42.134;24.718;2023-03-23T09:07:45;9.77;;;7.43;;
11829;SDS011;5972;42.134;24.718;2023-03-23T09:10:14;8.20;;;7.40;;
11829;SDS011;5972;42.134;24.718;2023-03-23T09:12:42;9.30;;;7.38;;
11829;SDS011;5972;42.134;24.718;2023-03-23T09:15:10;7.40;;;6.70;;
11829;SDS011;5972;42.134;24.718;2023-03-23T09:17:41;7.97;;;7.28;;
11829;SDS011;5972;42.134;24.718;2023-03-23T09:20:12;7.82;;;7.13;;
11829;SDS011;5972;42.134;24.718;2023-03-23T09:22:40;7.88;;;7.18;;
11829;SDS011;5972;42.134;24.718;2023-03-23T09:25:10;7.97;;;7.00;;
11829;SDS011;5972;42.134;24.718;2023-03-23T09:27:38;7.35;;;6.60;;
11829;SDS011;5972;42.134;24.718;2023-03-23T09:30:06;10.57;;;6.03;;
11829;SDS011;5972;42.134;24.718;2023-03-23T09:32:35;6.45;;;5.80;;
11829;SDS011;5972;42.134;24.718;2023-03-23T09:35:03;5.95;;;5.38;;
11829;SDS011;5972;42.134;24.718;2023-03-23T09:37:35;6.18;;;5.53;;
11829;SDS011;5972;42.134;24.718;2023-03-23T09:40:03;5.80;;;5.30;;
11829;SDS011;5972;42.134;24.718;2023-03-23T09:42:36;4.47;;;4.07;;
11829;SDS011;5972;42.134;24.718;2023-03-23T09:45:10;4.18;;;3.78;;
11829;SDS011;5972;42.134;24.718;2023-03-23T09:48:00;5.57;;;4.07;;
11829;SDS011;5972;42.134;24.718;2023-03-23T09:50:37;4.55;;;4.18;;
11829;SDS011;5972;42.134;24.718;2023-03-23T09:53:10;5.10;;;4.60;;
11829;SDS011;5972;42.134;24.718;2023-03-23T09:55:41;6.38;;;5.05;;
11829;SDS011;5972;42.134;24.718;2023-03-23T09:58:10;5.05;;;4.60;;
11829;SDS011;5972;42.134;24.718;2023-03-23T10:00:43;5.47;;;4.95;;
11829;SDS011;5972;42.134;24.718;2023-03-23T10:03:14;6.07;;;5.00;;
11829;SDS011;5972;42.134;24.718;2023-03-23T10:05:44;6.70;;;5.05;;
11829;SDS011;5972;42.134;24.718;2023-03-23T10:08:16;5.05;;;4.65;;
11829;SDS011;5972;42.134;24.718;2023-03-23T10:10:49;7.55;;;5.05;;
11829;SDS011;5972;42.134;24.718;2023-03-23T10:13:27;5.93;;;5.30;;
11829;SDS011;5972;42.134;24.718;2023-03-23T10:16:09;6.00;;;4.80;;
11829;SDS011;5972;42.134;24.718;2023-03-23T10:18:41;5.35;;;4.85;;
11829;SDS011;5972;42.134;24.718;2023-03-23T10:21:10;5.72;;;5.13;;
11829;SDS011;5972;42.134;24.718;2023-03-23T10:23:45;5.85;;;4.90;;
11829;SDS011;5972;42.134;24.718;2023-03-23T10:26:22;5.30;;;4.80;;
11829;SDS011;5972;42.134;24.718;2023-03-23T10:29:09;8.23;;;5.03;;
11829;SDS011;5972;42.134;24.718;2023-03-23T10:31:43;5.05;;;4.63;;
11829;SDS011;5972;42.134;24.718;2023-03-23T10:34:13;4.70;;;4.30;;
11829;SDS011;5972;42.134;24.718;2023-03-23T10:36:51;5.43;;;4.63;;
11829;SDS011;5972;42.134;24.718;2023-03-23T10:39:26;5.35;;;4.55;;
11829;SDS011;5972;42.134;24.718;2023-03-23T10:41:59;6.25;;;4.68;;
11829;SDS011;5972;42.134;24.718;2023-03-23T10:44:32;5.22;;;4.50;;
11829;SDS011;5972;42.134;24.718;2023-03-23T10:47:00;5.35;;;4.60;;
11829;SDS011;5972;42.134;24.718;2023-03-23T10:49:30;6.38;;;4.20;;
11829;SDS011;5972;42.134;24.718;2023-03-23T10:52:05;5.25;;;4.75;;
11829;SDS011;5972;42.134;24.718;2023-03-23T10:54:46;4.63;;;3.10;;
11829;SDS011;5972;42.134;24.718;2023-03-23T10:57:21;3.97;;;3.00;;
11829;SDS011;5972;42.134;24.718;2023-03-23T10:59:57;3.88;;;3.42;;
11829;SDS011;5972;42.134;24.718;2023-03-23T11:02:25;4.03;;;3.70;;
11829;SDS011;5972;42.134;24.718;2023-03-23T11:04:56;3.38;;;3.08;;
11829;SDS011;5972;42.134;24.718;2023-03-23T11:07:31;3.58;;;3.28;;
11829;SDS011;5972;42.134;24.718;2023-03-23T11:10:07;3.53;;;3.22;;
11829;SDS011;5972;42.134;24.718;2023-03-23T11:12:43;3.38;;;2.90;;
11829;SDS011;5972;42.134;24.718;2023-03-23T11:15:18;6.35;;;2.92;;
11829;SDS011;5972;42.134;24.718;2023-03-23T11:17:56;3.60;;;3.30;;
11829;SDS011;5972;42.134;24.718;2023-03-23T11:20:28;4.22;;;3.40;;
11829;SDS011;5972;42.134;24.718;2023-03-23T11:23:01;6.68;;;3.47;;
11829;SDS011;5972;42.134;24.718;2023-03-23T11:25:39;4.78;;;3.83;;
11829;SDS011;5972;42.134;24.718;2023-03-23T11:28:35;4.35;;;3.95;;
11829;SDS011;5972;42.134;24.718;2023-03-23T11:31:04;4.22;;;3.83;;
11829;SDS011;5972;42.134;24.718;2023-03-23T11:33:35;3.58;;;3.28;;
11829;SDS011;5972;42.134;24.718;2023-03-23T11:36:05;4.40;;;4.00;;
11829;SDS011;5972;42.134;24.718;2023-03-23T11:38:34;4.53;;;4.13;;
11829;SDS011;5972;42.134;24.718;2023-03-23T11:41:08;4.75;;;4.25;;
11829;SDS011;5972;42.134;24.718;2023-03-23T11:43:38;6.53;;;3.80;;
11829;SDS011;5972;42.134;24.718;2023-03-23T11:46:09;3.97;;;3.67;;
11829;SDS011;5972;42.134;24.718;2023-03-23T11:48:42;4.05;;;3.75;;
11829;SDS011;5972;42.134;24.718;2023-03-23T11:53:54;3.80;;;3.50;;
11829;SDS011;5972;42.134;24.718;2023-03-23T11:56:27;5.68;;;3.60;;
11829;SDS011;5972;42.134;24.718;2023-03-23T11:58:58;4.13;;;3.72;;
11829;SDS011;5972;42.134;24.718;2023-03-23T12:04:24;4.30;;;3.90;;
11829;SDS011;5972;42.134;24.718;2023-03-23T12:07:19;4.38;;;3.97;;
11829;SDS011;5972;42.134;24.718;2023-03-23T12:09:59;5.97;;;5.38;;
11829;SDS011;5972;42.134;24.718;2023-03-23T12:12:35;6.05;;;5.45;;
11829;SDS011;5972;42.134;24.718;2023-03-23T12:15:11;6.85;;;6.15;;
11829;SDS011;5972;42.134;24.718;2023-03-23T12:17:48;7.45;;;6.65;;
11829;SDS011;5972;42.134;24.718;2023-03-23T12:20:25;8.57;;;7.72;;
11829;SDS011;5972;42.134;24.718;2023-03-23T12:23:05;8.52;;;7.60;;
11829;SDS011;5972;42.134;24.718;2023-03-23T12:28:40;6.95;;;6.25;;
11829;SDS011;5972;42.134;24.718;2023-03-23T12:31:25;7.80;;;7.00;;
11829;SDS011;5972;42.134;24.718;2023-03-23T12:33:59;7.22;;;6.53;;
11829;SDS011;5972;42.134;24.718;2023-03-23T12:36:37;7.22;;;6.53;;
11829;SDS011;5972;42.134;24.718;2023-03-23T12:42:16;6.82;;;6.13;;
11829;SDS011;5972;42.134;24.718;2023-03-23T12:44:55;8.07;;;6.43;;
11829;SDS011;5972;42.134;24.718;2023-03-23T12:47:32;6.72;;;5.72;;
11829;SDS011;5972;42.134;24.718;2023-03-23T12:50:05;6.80;;;6.10;;
11829;SDS011;5972;42.134;24.718;2023-03-23T12:52:41;6.05;;;5.45;;
11829;SDS011;5972;42.134;24.718;2023-03-23T12:55:21;6.43;;;5.45;;
11829;SDS011;5972;42.134;24.718;2023-03-23T12:57:54;7.43;;;5.28;;
11829;SDS011;5972;42.134;24.718;2023-03-23T13:00:27;6.10;;;5.50;;
11829;SDS011;5972;42.134;24.718;2023-03-23T13:03:05;6.70;;;4.57;;
11829;SDS011;5972;42.134;24.718;2023-03-23T13:05:42;6.13;;;4.72;;
11829;SDS011;5972;42.134;24.718;2023-03-23T13:08:20;6.22;;;4.53;;
11829;SDS011;5972;42.134;24.718;2023-03-23T13:10:52;4.78;;;4.38;;
11829;SDS011;5972;42.134;24.718;2023-03-23T13:13:23;4.57;;;4.18;;
11829;SDS011;5972;42.134;24.718;2023-03-23T13:16:00;5.72;;;5.22;;
11829;SDS011;5972;42.134;24.718;2023-03-23T13:18:37;7.07;;;5.00;;
11829;SDS011;5972;42.134;24.718;2023-03-23T13:21:13;4.78;;;3.90;;
11829;SDS011;5972;42.134;24.718;2023-03-23T13:23:46;4.90;;;4.10;;
11829;SDS011;5972;42.134;24.718;2023-03-23T13:26:17;4.45;;;4.05;;
11829;SDS011;5972;42.134;24.718;2023-03-23T13:28:54;4.60;;;4.20;;
11829;SDS011;5972;42.134;24.718;2023-03-23T13:31:25;4.57;;;4.18;;
11829;SDS011;5972;42.134;24.718;2023-03-23T13:34:02;4.35;;;3.95;;
11829;SDS011;5972;42.134;24.718;2023-03-23T13:36:39;4.22;;;3.72;;
11829;SDS011;5972;42.134;24.718;2023-03-23T13:39:16;4.90;;;4.40;;
11829;SDS011;5972;42.134;24.718;2023-03-23T13:41:46;4.18;;;3.78;;
11829;SDS011;5972;42.134;24.718;2023-03-23T13:44:16;3.83;;;3.40;;
11829;SDS011;5972;42.134;24.718;2023-03-23T13:47:03;4.40;;;3.40;;
11829;SDS011;5972;42.134;24.718;2023-03-23T13:49:44;4.13;;;3.53;;
11829;SDS011;5972;42.134;24.718;2023-03-23T13:52:15;4.70;;;3.60;;
11829;SDS011;5972;42.134;24.718;2023-03-23T14:00:25;4.15;;;3.20;;
11829;SDS011;5972;42.134;24.718;2023-03-23T14:03:02;4.50;;;3.50;;
11829;SDS011;5972;42.134;24.718;2023-03-23T14:05:34;4.90;;;3.10;;
11829;SDS011;5972;42.134;24.718;2023-03-23T14:08:03;4.18;;;3.78;;
11829;SDS011;5972;42.134;24.718;2023-03-23T14:10:39;3.33;;;3.03;;
11829;SDS011;5972;42.134;24.718;2023-03-23T14:13:15;3.88;;;3.40;;
11829;SDS011;5972;42.134;24.718;2023-03-23T14:15:56;4.15;;;3.30;;
11829;SDS011;5972;42.134;24.718;2023-03-23T14:18:29;3.83;;;3.42;;
11829;SDS011;5972;42.134;24.718;2023-03-23T14:20:58;3.45;;;3.15;;
11829;SDS011;5972;42.134;24.718;2023-03-23T14:23:26;5.13;;;3.50;;
11829;SDS011;5972;42.134;24.718;2023-03-23T14:25:58;5.22;;;3.50;;
11829;SDS011;5972;42.134;24.718;2023-03-23T14:28:32;4.57;;;3.75;;
11829;SDS011;5972;42.134;24.718;2023-03-23T14:31:03;4.07;;;3.72;;
11829;SDS011;5972;42.134;24.718;2023-03-23T14:33:32;3.92;;;3.35;;
11829;SDS011;5972;42.134;24.718;2023-03-23T14:36:19;3.75;;;3.15;;
11829;SDS011;5972;42.134;24.718;2023-03-23T14:38:47;3.65;;;3.30;;
11829;SDS011;5972;42.134;24.718;2023-03-23T14:41:14;4.43;;;3.20;;
11829;SDS011;5972;42.134;24.718;2023-03-23T14:43:41;4.68;;;3.80;;
11829;SDS011;5972;42.134;24.718;2023-03-23T14:46:10;4.90;;;4.00;;
11829;SDS011;5972;42.134;24.718;2023-03-23T14:48:40;3.60;;;3.30;;
11829;SDS011;5972;42.134;24.718;2023-03-23T14:51:07;4.68;;;3.58;;
11829;SDS011;5972;42.134;24.718;2023-03-23T14:53:44;3.50;;;3.20;;
11829;SDS011;5972;42.134;24.718;2023-03-23T14:56:11;3.72;;;3.42;;
11829;SDS011;5972;42.134;24.718;2023-03-23T14:58:43;3.38;;;3.08;;
11829;SDS011;5972;42.134;24.718;2023-03-23T15:01:10;4.20;;;3.70;;
11829;SDS011;5972;42.134;24.718;2023-03-23T15:03:43;3.70;;;3.40;;
11829;SDS011;5972;42.134;24.718;2023-03-23T15:06:16;3.83;;;3.53;;
11829;SDS011;5972;42.134;24.718;2023-03-23T15:08:46;4.45;;;3.60;;
11829;SDS011;5972;42.134;24.718;2023-03-23T15:11:21;5.30;;;3.53;;
11829;SDS011;5972;42.134;24.718;2023-03-23T15:13:52;4.18;;;3.47;;